Time;durP1;ratioP1;P1;durP2;ratioP2;P2;SDS_P1;SDS_P2;PMS_P1;PMS_P2;Temp;Humidity;BMP_temperature;BMP_pressure;BME280_temperature;BME280_humidity;BME280_pressure;Samples;Min_cycle;Max_cycle;Signal;HPM_P1;HPM_P2
2024/04/05 00:00:29;;;;;;;13.02;2.65;;;13.30;99.90;;;;;;4162922;28;20042;-67
2024/04/05 00:02:29;;;;;;;9.07;2.55;;;13.30;99.90;;;;;;4158931;28;20061;-67
2024/04/05 00:04:30;;;;;;;11.95;3.10;;;13.40;99.90;;;;;;4161194;28;20394;-66
2024/04/05 00:06:31;;;;;;;13.88;2.95;;;13.30;99.90;;;;;;4162770;28;20080;-67
2024/04/05 00:08:33;;;;;;;7.53;2.35;;;13.30;99.90;;;;;;4163204;28;20037;-66
2024/04/05 00:10:33;;;;;;;9.75;2.53;;;13.40;99.90;;;;;;4162782;28;20041;-66
2024/04/05 00:12:35;;;;;;;8.25;2.78;;;13.40;99.90;;;;;;4163916;28;20386;-67
2024/04/05 00:14:35;;;;;;;9.20;2.70;;;13.40;99.90;;;;;;4161024;28;20041;-66
2024/04/05 00:16:36;;;;;;;9.38;2.90;;;13.40;99.90;;;;;;4156725;28;20037;-66
2024/04/05 00:18:36;;;;;;;9.52;2.50;;;13.40;99.90;;;;;;4161844;28;20038;-67
2024/04/05 00:20:37;;;;;;;10.07;2.90;;;13.40;99.90;;;;;;4161633;28;20347;-66
2024/04/05 00:22:38;;;;;;;12.07;3.03;;;13.40;99.90;;;;;;4158315;28;20124;-67
2024/04/05 00:24:38;;;;;;;8.07;2.53;;;13.40;99.90;;;;;;4162894;28;20162;-66
2024/04/05 00:26:39;;;;;;;7.80;2.47;;;13.40;99.90;;;;;;4161204;28;20055;-66
2024/04/05 00:28:40;;;;;;;8.63;2.13;;;13.40;99.90;;;;;;4162857;28;20371;-67
2024/04/05 00:30:40;;;;;;;9.25;2.53;;;13.40;99.90;;;;;;4162100;28;20068;-67
2024/04/05 00:32:41;;;;;;;9.95;2.38;;;13.40;99.90;;;;;;4161810;28;20064;-66
2024/04/05 00:34:43;;;;;;;11.48;2.80;;;13.40;99.90;;;;;;4144780;28;20038;-59
2024/04/05 00:36:43;;;;;;;6.88;2.28;;;13.40;99.90;;;;;;4151471;28;20042;-59
2024/04/05 00:38:44;;;;;;;12.52;2.90;;;13.40;99.90;;;;;;4152185;28;20052;-59
2024/04/05 00:40:45;;;;;;;9.32;2.58;;;13.40;99.90;;;;;;4161678;28;20064;-59
2024/04/05 00:42:45;;;;;;;11.30;2.97;;;13.40;99.90;;;;;;4159519;28;20532;-59
2024/04/05 00:44:46;;;;;;;11.20;2.83;;;13.40;99.90;;;;;;4162200;28;20042;-59
2024/04/05 00:46:47;;;;;;;12.15;3.20;;;13.40;99.90;;;;;;4161310;28;20186;-59
2024/04/05 00:48:48;;;;;;;8.10;2.55;;;13.40;99.90;;;;;;4162342;28;20390;-59
2024/04/05 00:50:51;;;;;;;8.07;2.67;;;13.40;99.90;;;;;;4161278;28;20049;-59
2024/04/05 00:52:52;;;;;;;7.70;2.53;;;13.40;99.90;;;;;;4160838;28;20430;-59
2024/04/05 00:54:53;;;;;;;10.90;3.38;;;13.40;99.90;;;;;;4155307;28;20037;-59
2024/04/05 00:56:55;;;;;;;15.45;2.83;;;13.30;99.90;;;;;;4158571;28;20041;-59
2024/04/05 00:58:56;;;;;;;10.65;2.55;;;13.30;99.90;;;;;;4162250;28;20042;-58
2024/04/05 01:00:57;;;;;;;8.02;2.25;;;13.30;99.90;;;;;;4154446;28;20033;-59
2024/04/05 01:02:58;;;;;;;11.85;3.08;;;13.30;99.90;;;;;;4149736;28;20047;-58
2024/04/05 01:04:59;;;;;;;9.02;2.75;;;13.30;99.90;;;;;;4159483;28;20117;-59
2024/04/05 01:06:59;;;;;;;8.40;2.33;;;13.30;99.90;;;;;;4142810;28;20046;-59
2024/04/05 01:09:00;;;;;;;8.75;2.53;;;13.30;99.90;;;;;;4161829;28;20138;-58
2024/04/05 01:11:00;;;;;;;9.68;2.22;;;13.20;99.90;;;;;;4160165;28;20037;-64
2024/04/05 01:13:02;;;;;;;11.73;3.28;;;13.20;99.90;;;;;;4161436;28;20041;-60
2024/04/05 01:15:03;;;;;;;10.53;2.93;;;13.20;99.90;;;;;;4161540;28;20064;-59
2024/04/05 01:17:04;;;;;;;7.43;2.28;;;13.20;99.90;;;;;;4160980;28;20037;-59
2024/04/05 01:19:05;;;;;;;6.72;2.05;;;13.20;99.90;;;;;;4160128;28;20382;-59
2024/04/05 01:21:06;;;;;;;7.68;2.28;;;13.20;99.90;;;;;;4160574;28;20036;-62
2024/04/05 01:23:10;;;;;;;7.63;2.45;;;13.20;99.90;;;;;;4161182;28;20029;-60
2024/04/05 01:25:10;;;;;;;8.10;2.20;;;13.30;99.90;;;;;;4160359;28;20056;-60
2024/04/05 01:27:11;;;;;;;9.27;2.35;;;13.30;99.90;;;;;;4160986;28;20041;-59
2024/04/05 01:29:12;;;;;;;11.82;2.72;;;13.30;99.90;;;;;;4161569;28;20041;-59
2024/04/05 01:31:12;;;;;;;10.57;2.38;;;13.30;99.90;;;;;;4160499;28;20037;-59
2024/04/05 01:33:13;;;;;;;9.82;2.95;;;13.30;99.90;;;;;;4159277;28;20537;-59
2024/04/05 01:35:13;;;;;;;9.30;2.47;;;13.30;99.90;;;;;;4160160;28;20040;-59
2024/04/05 01:37:14;;;;;;;7.68;1.98;;;13.30;99.90;;;;;;4160409;28;20531;-59
2024/04/05 01:39:15;;;;;;;10.70;2.20;;;13.30;99.90;;;;;;4160967;28;20551;-59
2024/04/05 01:41:19;;;;;;;9.65;2.75;;;13.30;99.90;;;;;;4160699;28;20545;-59
2024/04/05 01:43:19;;;;;;;6.85;2.10;;;13.30;99.90;;;;;;4156404;28;20398;-58
2024/04/05 01:45:21;;;;;;;14.10;2.70;;;13.30;99.90;;;;;;4161559;28;20117;-66
2024/04/05 01:47:21;;;;;;;6.15;2.10;;;13.30;99.90;;;;;;4162012;28;20060;-66
2024/04/05 01:49:22;;;;;;;12.73;2.67;;;13.30;99.90;;;;;;4161898;28;20394;-66
2024/04/05 01:51:22;;;;;;;9.82;2.58;;;13.30;99.90;;;;;;4158693;28;20037;-66
2024/04/05 01:53:23;;;;;;;11.18;2.97;;;13.30;99.90;;;;;;4146476;28;20065;-66
2024/04/05 01:55:24;;;;;;;11.68;3.10;;;13.20;99.90;;;;;;4158195;28;20528;-66
2024/04/05 01:57:24;;;;;;;8.52;2.28;;;13.20;99.90;;;;;;4161653;28;20033;-66
2024/04/05 01:59:25;;;;;;;8.05;2.42;;;13.30;99.90;;;;;;4160433;28;20041;-66
2024/04/05 02:01:26;;;;;;;8.93;2.20;;;13.20;99.90;;;;;;4160910;28;20258;-66
2024/04/05 02:03:26;;;;;;;10.63;2.78;;;13.20;99.90;;;;;;4161832;28;20061;-67
2024/04/05 02:05:27;;;;;;;12.50;2.83;;;13.30;99.90;;;;;;4161132;28;20077;-66
2024/04/05 02:07:27;;;;;;;16.30;2.72;;;13.20;99.90;;;;;;4161733;28;20045;-66
2024/04/05 02:09:28;;;;;;;8.98;2.63;;;13.20;99.90;;;;;;4160064;28;20088;-66
2024/04/05 02:11:29;;;;;;;9.95;2.75;;;13.30;99.90;;;;;;4161430;28;20037;-66
2024/04/05 02:13:29;;;;;;;8.68;2.13;;;13.30;99.90;;;;;;4161536;28;20038;-66
2024/04/05 02:15:31;;;;;;;6.97;2.22;;;13.30;99.90;;;;;;4160851;28;20041;-66
2024/04/05 02:17:32;;;;;;;9.35;2.45;;;13.30;99.90;;;;;;4161003;28;20079;-66
2024/04/05 02:19:32;;;;;;;9.68;2.33;;;13.30;99.90;;;;;;4161669;28;20018;-66
2024/04/05 02:21:33;;;;;;;7.13;2.35;;;13.30;99.90;;;;;;4161146;28;20415;-65
2024/04/05 02:23:34;;;;;;;10.55;2.47;;;13.30;99.90;;;;;;4161450;28;20089;-66
2024/04/05 02:25:34;;;;;;;6.68;2.20;;;13.30;99.90;;;;;;4160833;28;20029;-66
2024/04/05 02:27:35;;;;;;;8.68;2.70;;;13.40;99.90;;;;;;4161218;28;20034;-66
2024/04/05 02:29:36;;;;;;;6.55;2.40;;;13.30;99.90;;;;;;4159765;28;20060;-66
2024/04/05 02:31:36;;;;;;;11.88;2.67;;;13.30;99.90;;;;;;4161093;28;20033;-66
2024/04/05 02:33:37;;;;;;;7.35;2.25;;;13.30;99.90;;;;;;4159983;28;20116;-65
2024/04/05 02:35:38;;;;;;;11.13;2.85;;;13.40;99.90;;;;;;4160202;28;20021;-67
2024/04/05 02:37:39;;;;;;;12.15;2.28;;;13.30;99.90;;;;;;4160966;28;20494;-66
2024/04/05 02:39:39;;;;;;;10.88;2.72;;;13.30;99.90;;;;;;4161792;28;20121;-66
2024/04/05 02:41:40;;;;;;;9.45;2.53;;;13.30;99.90;;;;;;4160801;28;20381;-66
2024/04/05 02:43:41;;;;;;;7.57;2.45;;;13.40;99.90;;;;;;4161276;28;20029;-66
2024/04/05 02:45:41;;;;;;;5.28;1.80;;;13.30;99.90;;;;;;4160679;28;20135;-66
2024/04/05 02:47:42;;;;;;;5.82;2.20;;;13.40;99.90;;;;;;4161193;28;20026;-65
2024/04/05 02:49:42;;;;;;;11.05;2.60;;;13.40;99.90;;;;;;4161634;28;20117;-66
2024/04/05 02:51:43;;;;;;;7.47;2.63;;;13.40;99.90;;;;;;4146804;28;20048;-66
2024/04/05 02:53:44;;;;;;;12.32;3.03;;;13.40;99.90;;;;;;4186057;28;20024;-66
2024/04/05 02:55:45;;;;;;;10.25;2.58;;;13.40;99.90;;;;;;4160576;28;20060;-67
2024/04/05 02:57:46;;;;;;;10.77;3.00;;;13.40;99.90;;;;;;4161337;28;20101;-68
2024/04/05 02:59:46;;;;;;;10.13;2.78;;;13.40;99.90;;;;;;4161343;28;20026;-67
2024/04/05 03:01:48;;;;;;;8.38;2.70;;;13.40;99.90;;;;;;4160711;28;20055;-67
2024/04/05 03:03:50;;;;;;;11.30;2.78;;;13.40;99.90;;;;;;4161263;28;20116;-67
2024/04/05 03:05:51;;;;;;;11.43;2.92;;;13.40;99.90;;;;;;4160142;28;20076;-67
2024/04/05 03:07:51;;;;;;;7.82;2.45;;;13.40;99.90;;;;;;4158033;28;20048;-67
2024/04/05 03:09:52;;;;;;;8.85;2.60;;;13.40;99.90;;;;;;4161191;28;20521;-67
2024/04/05 03:11:52;;;;;;;6.95;2.20;;;13.40;99.90;;;;;;4160069;28;20482;-67
2024/04/05 03:13:53;;;;;;;9.05;2.05;;;13.40;99.90;;;;;;4156450;28;20049;-67
2024/04/05 03:15:53;;;;;;;7.45;2.20;;;13.30;99.90;;;;;;4159221;28;20045;-67
2024/04/05 03:17:54;;;;;;;12.20;2.90;;;13.30;99.90;;;;;;4159769;28;20036;-67
2024/04/05 03:19:54;;;;;;;9.82;2.67;;;13.40;99.90;;;;;;4161429;28;20052;-67
2024/04/05 03:21:55;;;;;;;6.47;2.15;;;13.30;99.90;;;;;;4160515;28;20497;-67
2024/04/05 03:23:56;;;;;;;10.90;2.83;;;13.30;99.90;;;;;;4160907;28;20341;-67
2024/04/05 03:25:56;;;;;;;10.38;2.80;;;13.40;99.90;;;;;;4160057;28;20033;-67
2024/04/05 03:27:57;;;;;;;8.20;2.35;;;13.30;99.90;;;;;;4160872;28;21156;-67
2024/04/05 03:29:58;;;;;;;11.27;2.80;;;13.40;99.90;;;;;;4161408;28;20053;-67
2024/04/05 03:31:58;;;;;;;8.20;2.60;;;13.30;99.90;;;;;;4160363;28;20033;-67
2024/04/05 03:33:59;;;;;;;7.20;2.40;;;13.30;99.90;;;;;;4161135;28;20379;-67
2024/04/05 03:36:04;;;;;;;9.60;2.03;;;13.30;99.90;;;;;;4160705;28;20025;-67
2024/04/05 03:38:04;;;;;;;9.60;2.60;;;13.40;99.90;;;;;;4157154;28;20140;-68
2024/04/05 03:40:05;;;;;;;13.27;2.88;;;13.30;99.90;;;;;;4157274;28;20033;-68
2024/04/05 03:42:06;;;;;;;6.47;2.22;;;13.40;99.90;;;;;;4155680;28;20037;-67
2024/04/05 03:44:07;;;;;;;9.10;2.42;;;13.40;99.90;;;;;;4156520;28;20029;-67
2024/04/05 03:46:07;;;;;;;9.38;2.63;;;13.40;99.90;;;;;;4157436;28;20116;-67
2024/04/05 03:48:09;;;;;;;9.35;2.63;;;13.40;99.90;;;;;;4153790;28;20029;-65
2024/04/05 03:50:10;;;;;;;7.55;2.38;;;13.40;99.90;;;;;;4159887;28;20402;-68
2024/04/05 03:52:10;;;;;;;5.72;1.92;;;13.40;99.90;;;;;;4156194;28;20030;-67
2024/04/05 03:54:11;;;;;;;12.48;2.95;;;13.40;99.90;;;;;;4160825;28;20424;-67
2024/04/05 03:56:12;;;;;;;10.05;2.38;;;13.40;99.90;;;;;;4161416;28;20116;-67
2024/04/05 03:58:13;;;;;;;7.43;2.03;;;13.40;99.90;;;;;;4160035;28;20095;-66
2024/04/05 04:00:14;;;;;;;12.23;3.13;;;13.30;99.90;;;;;;4158570;28;20486;-67
2024/04/05 04:02:14;;;;;;;8.27;2.63;;;13.30;99.90;;;;;;4158722;28;20081;-67
2024/04/05 04:04:15;;;;;;;9.88;2.42;;;13.30;99.90;;;;;;4161443;28;20040;-67
2024/04/05 04:06:16;;;;;;;13.23;2.58;;;13.30;99.90;;;;;;4160227;28;20421;-65
2024/04/05 04:08:16;;;;;;;8.48;2.53;;;13.40;99.90;;;;;;4156144;28;20048;-65
2024/04/05 04:10:17;;;;;;;10.13;2.78;;;13.30;99.90;;;;;;4158616;28;20041;-65
2024/04/05 04:12:17;;;;;;;7.15;1.70;;;13.30;99.90;;;;;;4162086;28;20026;-65
2024/04/05 04:14:18;;;;;;;7.05;2.25;;;13.30;99.90;;;;;;4161995;28;20087;-65
2024/04/05 04:16:20;;;;;;;9.45;2.90;;;13.40;99.90;;;;;;4159755;28;20044;-65
2024/04/05 04:18:20;;;;;;;6.93;1.90;;;13.40;99.90;;;;;;4161835;28;20092;-65
2024/04/05 04:20:21;;;;;;;7.03;2.28;;;13.40;99.90;;;;;;4160669;28;20680;-65
2024/04/05 04:22:22;;;;;;;6.70;2.35;;;13.40;99.90;;;;;;4162039;28;20041;-65
2024/04/05 04:24:22;;;;;;;12.88;2.58;;;13.40;99.90;;;;;;4161849;28;20029;-65
2024/04/05 04:26:23;;;;;;;11.07;2.40;;;13.40;99.90;;;;;;4159141;28;20088;-66
2024/04/05 04:28:24;;;;;;;10.27;2.58;;;13.40;99.90;;;;;;4160590;28;20487;-66
2024/04/05 04:30:25;;;;;;;6.13;2.30;;;13.40;99.90;;;;;;4159433;28;20893;-66
2024/04/05 04:32:25;;;;;;;7.20;2.22;;;13.40;99.90;;;;;;4161662;28;20127;-66
2024/04/05 04:34:26;;;;;;;13.60;2.80;;;13.40;99.90;;;;;;4157155;28;20067;-66
2024/04/05 04:36:26;;;;;;;6.38;2.20;;;13.30;99.90;;;;;;4158217;28;20045;-66
2024/04/05 04:38:27;;;;;;;10.55;2.90;;;13.30;99.90;;;;;;4160292;28;20417;-66
2024/04/05 04:40:27;;;;;;;11.35;2.28;;;13.30;99.90;;;;;;4160082;28;20095;-66
2024/04/05 04:42:28;;;;;;;8.55;2.45;;;13.30;99.90;;;;;;4160329;28;20033;-66
2024/04/05 04:44:29;;;;;;;11.38;2.60;;;13.30;99.90;;;;;;4160761;28;20187;-66
2024/04/05 04:46:29;;;;;;;7.97;1.90;;;13.30;99.90;;;;;;4157285;28;20474;-66
2024/04/05 04:48:30;;;;;;;6.03;2.15;;;13.30;99.90;;;;;;4159148;28;20045;-67
2024/04/05 04:50:31;;;;;;;13.93;3.05;;;13.20;99.90;;;;;;4160542;28;20079;-67
2024/04/05 04:52:32;;;;;;;10.13;2.60;;;13.20;99.90;;;;;;4161131;28;20433;-67
2024/04/05 04:54:32;;;;;;;9.38;2.47;;;13.30;99.90;;;;;;4143123;28;20041;-67
2024/04/05 04:56:33;;;;;;;12.35;3.30;;;13.20;99.90;;;;;;4157419;28;20030;-67
2024/04/05 04:58:34;;;;;;;16.42;5.38;;;13.20;99.90;;;;;;4160935;28;20378;-67
2024/04/05 05:00:35;;;;;;;17.25;6.75;;;13.10;99.90;;;;;;4157516;28;20049;-67
2024/04/05 05:02:36;;;;;;;30.27;11.02;;;13.10;99.90;;;;;;4143910;28;20178;-66
2024/04/05 05:04:37;;;;;;;23.00;10.38;;;13.10;99.90;;;;;;4148115;28;20037;-68
2024/04/05 05:06:38;;;;;;;24.08;10.25;;;13.10;99.90;;;;;;4158415;28;20540;-68
2024/04/05 05:08:38;;;;;;;18.35;7.00;;;13.10;99.90;;;;;;4159024;28;20057;-67
2024/04/05 05:10:40;;;;;;;14.20;4.75;;;13.10;99.90;;;;;;4159474;28;20048;-68
2024/04/05 05:12:40;;;;;;;11.90;4.40;;;13.10;99.90;;;;;;4160788;28;20037;-67
2024/04/05 05:14:41;;;;;;;12.25;3.95;;;13.10;99.90;;;;;;4160393;28;20519;-66
2024/04/05 05:16:42;;;;;;;12.07;3.78;;;13.10;99.90;;;;;;4159082;28;20386;-61
2024/04/05 05:18:42;;;;;;;13.77;4.60;;;13.10;99.90;;;;;;4160099;28;20378;-60
2024/04/05 05:20:47;;;;;;;16.70;5.97;;;13.10;99.90;;;;;;4156518;28;20076;-60
2024/04/05 05:22:48;;;;;;;15.00;6.03;;;13.10;99.90;;;;;;4155256;28;20545;-60
2024/04/05 05:24:49;;;;;;;19.02;7.50;;;13.20;99.90;;;;;;4158525;28;20029;-60
2024/04/05 05:26:50;;;;;;;17.02;6.50;;;13.20;99.90;;;;;;4156086;28;20560;-60
2024/04/05 05:28:50;;;;;;;14.75;6.20;;;13.20;99.90;;;;;;4155772;28;20041;-60
2024/04/05 05:30:51;;;;;;;12.57;5.43;;;13.20;99.90;;;;;;4152044;28;20041;-60
2024/04/05 05:32:53;;;;;;;16.67;5.70;;;13.20;99.90;;;;;;4144975;28;20462;-60
2024/04/05 05:34:54;;;;;;;14.30;5.25;;;13.20;99.90;;;;;;4150365;28;20401;-60
2024/04/05 05:36:54;;;;;;;9.75;4.50;;;13.30;99.90;;;;;;4158166;28;20117;-59
2024/04/05 05:38:55;;;;;;;10.70;4.22;;;13.30;99.90;;;;;;4157490;28;20045;-60
2024/04/05 05:40:56;;;;;;;10.65;4.20;;;13.30;99.90;;;;;;4157429;28;20048;-60
2024/04/05 05:42:56;;;;;;;9.65;3.40;;;13.30;99.90;;;;;;4158925;28;20662;-59
2024/04/05 05:44:57;;;;;;;7.82;2.78;;;13.30;99.90;;;;;;4144618;28;20029;-60
2024/04/05 05:46:58;;;;;;;8.27;3.05;;;13.30;99.90;;;;;;4157501;28;20053;-60
2024/04/05 05:49:00;;;;;;;6.93;2.42;;;13.30;99.90;;;;;;4159388;28;20091;-59
2024/04/05 05:51:01;;;;;;;7.45;1.95;;;13.30;99.90;;;;;;4156433;28;20530;-60
2024/04/05 05:53:02;;;;;;;9.02;2.78;;;13.30;99.90;;;;;;4158766;28;20044;-60
2024/04/05 05:55:03;;;;;;;12.90;2.97;;;13.30;99.90;;;;;;4159009;28;20497;-61
2024/04/05 05:57:04;;;;;;;9.73;2.90;;;13.30;99.90;;;;;;4158026;28;20026;-60
2024/04/05 05:59:05;;;;;;;9.90;2.85;;;13.30;99.90;;;;;;4152150;28;20083;-59
2024/04/05 06:01:06;;;;;;;8.95;2.60;;;13.20;99.90;;;;;;4156730;28;20132;-60
2024/04/05 06:03:07;;;;;;;9.93;2.70;;;13.20;99.90;;;;;;4159552;28;20036;-60
2024/04/05 06:05:09;;;;;;;9.20;2.63;;;13.20;99.90;;;;;;4157840;28;20394;-60
2024/04/05 06:07:11;;;;;;;9.65;2.35;;;13.20;99.90;;;;;;4158344;28;20453;-62
2024/04/05 06:09:14;;;;;;;10.48;2.72;;;13.20;99.90;;;;;;4158701;28;20037;-60
2024/04/05 06:11:14;;;;;;;11.35;2.42;;;13.20;99.90;;;;;;4154840;28;20051;-60
2024/04/05 06:13:15;;;;;;;9.13;2.30;;;13.20;99.90;;;;;;4158924;28;20108;-60
2024/04/05 06:15:15;;;;;;;11.52;3.22;;;13.20;99.90;;;;;;4161211;28;20037;-60
2024/04/05 06:17:16;;;;;;;12.68;3.00;;;13.20;99.90;;;;;;4159091;28;20498;-60
2024/04/05 06:19:16;;;;;;;9.35;2.78;;;13.20;99.90;;;;;;4159581;28;20037;-60
2024/04/05 06:21:17;;;;;;;14.85;3.30;;;13.20;99.90;;;;;;4156139;28;20061;-60
2024/04/05 06:23:18;;;;;;;11.45;2.90;;;13.30;99.90;;;;;;4157546;28;20638;-60
2024/04/05 06:25:19;;;;;;;6.63;2.72;;;13.30;99.90;;;;;;4157862;28;20052;-67
2024/04/05 06:27:21;;;;;;;7.40;3.05;;;13.40;99.90;;;;;;4154304;28;20849;-63
2024/04/05 06:29:22;;;;;;;6.43;2.65;;;13.40;99.90;;;;;;4154571;28;20592;-63
2024/04/05 06:31:23;;;;;;;12.20;3.35;;;13.40;99.90;;;;;;4152821;28;20761;-63
2024/04/05 06:33:23;;;;;;;11.32;3.13;;;13.40;99.90;;;;;;4152083;28;20395;-63
2024/04/05 06:35:24;;;;;;;10.68;3.15;;;13.40;99.90;;;;;;4149382;28;20095;-63
2024/04/05 06:37:26;;;;;;;12.32;3.50;;;13.50;99.90;;;;;;4149284;28;20120;-63
2024/04/05 06:39:26;;;;;;;14.97;3.60;;;13.60;99.90;;;;;;4155927;28;20045;-63
2024/04/05 06:41:27;;;;;;;9.63;3.03;;;13.70;99.90;;;;;;4151941;28;20284;-63
2024/04/05 06:43:29;;;;;;;9.98;3.25;;;13.80;99.90;;;;;;4155088;28;20048;-63
2024/04/05 06:45:29;;;;;;;13.10;3.47;;;13.80;99.90;;;;;;4153675;28;20421;-63
2024/04/05 06:47:30;;;;;;;10.98;3.17;;;13.90;99.90;;;;;;4153345;28;20053;-63
2024/04/05 06:49:32;;;;;;;8.07;2.72;;;14.00;99.90;;;;;;4155499;28;20538;-63
2024/04/05 06:51:32;;;;;;;9.10;3.13;;;14.00;99.90;;;;;;4153447;28;20045;-63
2024/04/05 06:53:33;;;;;;;7.07;2.97;;;14.00;99.90;;;;;;4154296;28;20521;-63
2024/04/05 06:55:34;;;;;;;12.85;3.13;;;14.00;99.90;;;;;;4154830;28;20041;-63
2024/04/05 06:57:35;;;;;;;12.60;3.22;;;14.10;99.90;;;;;;4153404;28;20054;-63
2024/04/05 06:59:36;;;;;;;9.10;2.67;;;14.00;99.90;;;;;;4156706;28;20490;-63
2024/04/05 07:01:37;;;;;;;9.68;2.63;;;14.00;99.90;;;;;;4152399;28;20494;-63
2024/04/05 07:03:38;;;;;;;8.32;2.88;;;14.10;99.90;;;;;;4155078;28;20060;-63
2024/04/05 07:05:40;;;;;;;10.70;2.95;;;14.00;99.90;;;;;;4153590;28;20046;-63
2024/04/05 07:07:41;;;;;;;10.63;3.03;;;14.00;99.90;;;;;;4155254;28;20049;-63
2024/04/05 07:09:44;;;;;;;14.45;3.25;;;14.00;99.90;;;;;;4149001;28;20625;-64
2024/04/05 07:11:44;;;;;;;9.85;2.45;;;14.10;99.90;;;;;;4152587;28;20029;-63
2024/04/05 07:13:45;;;;;;;9.43;2.65;;;14.10;99.90;;;;;;4154204;28;20483;-63
2024/04/05 07:15:46;;;;;;;9.70;2.40;;;14.20;99.90;;;;;;4155157;28;20040;-64
2024/04/05 07:17:54;;;;;;;9.18;2.45;;;14.20;99.90;;;;;;4156508;28;20033;-64
2024/04/05 07:19:55;;;;;;;9.32;2.97;;;14.20;99.90;;;;;;4152135;28;20049;-63
2024/04/05 07:21:55;;;;;;;6.85;2.22;;;14.40;99.90;;;;;;4153378;28;20394;-63
2024/04/05 07:23:56;;;;;;;9.18;2.33;;;14.40;99.90;;;;;;4155029;28;20052;-63
2024/04/05 07:25:57;;;;;;;9.05;2.15;;;14.50;99.90;;;;;;4148231;28;20038;-63
2024/04/05 07:27:57;;;;;;;12.10;2.83;;;14.50;99.90;;;;;;4154302;28;20029;-63
2024/04/05 07:29:58;;;;;;;9.93;2.40;;;14.60;99.90;;;;;;4154087;28;20040;-63
2024/04/05 07:31:58;;;;;;;10.32;2.58;;;14.60;99.90;;;;;;4159604;28;20029;-63
2024/04/05 07:34:00;;;;;;;10.90;2.63;;;14.60;99.90;;;;;;4157006;28;20478;-63
2024/04/05 07:36:00;;;;;;;11.98;2.47;;;14.70;99.90;;;;;;4150811;28;20116;-64
2024/04/05 07:38:01;;;;;;;9.90;2.33;;;14.70;99.90;;;;;;4156514;28;20061;-64
2024/04/05 07:40:02;;;;;;;9.82;2.85;;;14.80;99.90;;;;;;4155882;28;20461;-64
2024/04/05 07:42:02;;;;;;;7.85;2.33;;;14.80;99.90;;;;;;4158078;28;20029;-64
2024/04/05 07:44:03;;;;;;;10.15;2.92;;;14.80;99.90;;;;;;4154214;28;20134;-64
2024/04/05 07:46:04;;;;;;;7.10;2.47;;;14.90;99.90;;;;;;4154376;28;20559;-64
2024/04/05 07:48:05;;;;;;;11.55;3.38;;;14.90;99.90;;;;;;4158638;28;20159;-64
2024/04/05 07:50:06;;;;;;;12.35;3.13;;;15.00;99.90;;;;;;4156026;28;20521;-64
2024/04/05 07:52:07;;;;;;;11.60;2.60;;;15.00;99.90;;;;;;4157589;28;20095;-64
2024/04/05 07:54:08;;;;;;;10.77;2.33;;;15.00;99.90;;;;;;4155907;28;20037;-64
2024/04/05 07:56:09;;;;;;;11.20;3.00;;;15.00;99.90;;;;;;4156800;28;20573;-64
2024/04/05 07:58:10;;;;;;;5.88;2.20;;;15.00;99.90;;;;;;4156192;28;20077;-64
2024/04/05 08:00:14;;;;;;;12.07;2.97;;;15.00;99.90;;;;;;4155186;28;20100;-65
2024/04/05 08:02:15;;;;;;;13.15;2.95;;;15.00;99.90;;;;;;4156043;28;20046;-64
2024/04/05 08:04:16;;;;;;;9.38;2.38;;;15.00;99.90;;;;;;4150594;28;20060;-64
2024/04/05 08:06:16;;;;;;;9.45;2.50;;;15.00;99.90;;;;;;4153304;28;20057;-64
2024/04/05 08:08:17;;;;;;;4.93;1.83;;;15.00;99.90;;;;;;4153916;28;20446;-64
2024/04/05 08:10:18;;;;;;;8.05;2.33;;;15.00;99.90;;;;;;4157706;28;20516;-64
2024/04/05 08:12:19;;;;;;;10.30;2.38;;;15.00;99.90;;;;;;4145921;28;20122;-64
2024/04/05 08:14:20;;;;;;;8.80;2.22;;;15.00;99.90;;;;;;4163367;28;20033;-63
2024/04/05 08:16:21;;;;;;;9.35;1.95;;;15.00;99.90;;;;;;4152400;28;20437;-64
2024/04/05 08:18:22;;;;;;;8.98;2.40;;;15.00;99.90;;;;;;4153601;28;20127;-64
2024/04/05 08:20:23;;;;;;;11.55;2.63;;;15.00;99.90;;;;;;4150814;28;20037;-63
2024/04/05 08:22:24;;;;;;;7.70;2.25;;;14.90;99.90;;;;;;4155874;28;20037;-64
2024/04/05 08:24:24;;;;;;;7.40;2.03;;;14.90;99.90;;;;;;4147404;28;20045;-64
2024/04/05 08:26:25;;;;;;;9.60;2.30;;;14.90;99.90;;;;;;4151124;28;20050;-63
2024/04/05 08:28:26;;;;;;;6.65;1.98;;;14.90;99.90;;;;;;4154705;28;20033;-63
2024/04/05 08:30:27;;;;;;;8.05;2.03;;;14.90;99.90;;;;;;4154698;28;20136;-63
2024/04/05 08:32:28;;;;;;;8.13;2.13;;;14.90;99.90;;;;;;4161099;28;20540;-63
2024/04/05 08:34:28;;;;;;;8.13;2.40;;;14.90;99.90;;;;;;4157202;28;20057;-64
2024/04/05 08:36:29;;;;;;;7.45;2.40;;;14.90;99.90;;;;;;4155830;28;20601;-64
2024/04/05 08:38:29;;;;;;;9.65;2.85;;;14.90;99.90;;;;;;4171030;28;20029;-64
2024/04/05 08:40:32;;;;;;;8.52;1.90;;;14.90;99.90;;;;;;4166682;28;20033;-63
2024/04/05 08:42:33;;;;;;;15.45;2.95;;;14.90;99.90;;;;;;4160577;28;20593;-63
2024/04/05 08:44:34;;;;;;;8.88;2.25;;;14.90;99.90;;;;;;4161391;28;20124;-63
2024/04/05 08:46:35;;;;;;;7.78;2.17;;;14.90;99.90;;;;;;4153603;28;20038;-58
2024/04/05 08:48:36;;;;;;;8.05;2.42;;;14.80;99.90;;;;;;4158573;28;20473;-58
2024/04/05 08:50:37;;;;;;;8.90;2.45;;;14.90;99.90;;;;;;4161098;28;20040;-59
2024/04/05 08:52:38;;;;;;;11.07;1.92;;;14.80;99.90;;;;;;4163010;28;20482;-58
2024/04/05 08:54:39;;;;;;;6.70;1.70;;;14.80;99.90;;;;;;4162840;28;20067;-58
2024/04/05 08:56:45;;;;;;;8.68;2.33;;;14.80;99.90;;;;;;4162449;28;20064;-58
2024/04/05 08:58:46;;;;;;;8.40;2.10;;;14.80;99.90;;;;;;4156208;28;20086;-63
2024/04/05 09:00:48;;;;;;;6.63;1.88;;;14.80;99.90;;;;;;4155258;28;20235;-60
2024/04/05 09:02:53;;;;;;;5.05;1.75;;;14.80;99.90;;;;;;4158303;28;20046;-59
2024/04/05 09:04:54;;;;;;;9.52;2.45;;;14.90;99.90;;;;;;4157769;28;20402;-59
2024/04/05 09:06:59;;;;;;;6.82;1.80;;;14.80;99.90;;;;;;4156152;28;20046;-58
2024/04/05 09:09:00;;;;;;;10.43;2.30;;;14.90;99.90;;;;;;4144429;28;20033;-59
2024/04/05 09:11:01;;;;;;;7.60;2.20;;;14.90;99.90;;;;;;4157383;28;20037;-59
2024/04/05 09:13:04;;;;;;;5.70;1.92;;;14.90;99.90;;;;;;4157602;28;20052;-58
2024/04/05 09:15:06;;;;;;;;;;;15.00;99.90;;;;;;4158421;28;20030;-59
2024/04/05 09:17:16;;;;;;;11.90;1.85;;;15.00;99.90;;;;;;4156196;28;19955;-58
2024/04/05 09:19:17;;;;;;;7.75;2.15;;;15.00;99.90;;;;;;4156564;28;20038;-58
2024/04/05 09:21:18;;;;;;;13.90;2.72;;;15.10;99.90;;;;;;4154669;28;20096;-59
2024/04/05 09:23:19;;;;;;;8.93;2.40;;;15.10;99.90;;;;;;4157817;28;20044;-58
2024/04/05 09:25:19;;;;;;;11.93;2.42;;;15.10;99.90;;;;;;4156190;28;20025;-58
2024/04/05 09:27:21;;;;;;;11.25;2.47;;;15.10;99.90;;;;;;4156656;28;20349;-58
2024/04/05 09:29:21;;;;;;;7.50;1.95;;;15.20;99.90;;;;;;4148171;28;20048;-58
2024/04/05 09:31:23;;;;;;;7.13;2.20;;;15.20;99.90;;;;;;4152407;28;20049;-58
2024/04/05 09:33:23;;;;;;;4.70;1.98;;;15.20;99.90;;;;;;4156557;28;20049;-58
2024/04/05 09:35:27;;;;;;;4.68;1.55;;;15.20;99.90;;;;;;4155742;28;20047;-58
2024/04/05 09:37:28;;;;;;;6.75;1.90;;;15.20;99.90;;;;;;4156540;28;20049;-59
2024/04/05 09:39:30;;;;;;;8.25;2.13;;;15.20;99.90;;;;;;4154851;28;20223;-59
2024/04/05 09:41:35;;;;;;;5.35;1.70;;;15.20;99.90;;;;;;4152970;28;20033;-59
2024/04/05 09:43:37;;;;;;;11.25;2.20;;;15.20;99.90;;;;;;4154189;28;20438;-59
2024/04/05 09:45:42;;;;;;;8.25;1.67;;;15.10;99.90;;;;;;4151456;28;20060;-59
2024/04/05 09:47:44;;;;;;;4.72;1.58;;;15.10;99.90;;;;;;4182716;28;20036;-64
2024/04/05 09:49:45;;;;;;;6.43;2.20;;;15.20;99.90;;;;;;4152974;28;20100;-59
2024/04/05 09:51:52;;;;;;;5.43;1.80;;;15.10;99.90;;;;;;4184844;28;20049;-58
2024/04/05 09:53:54;;;;;;;5.43;2.17;;;15.10;99.90;;;;;;4157689;28;20090;-59
2024/04/05 09:56:01;;;;;;;6.97;1.85;;;15.20;99.90;;;;;;4154182;28;20537;-71
2024/04/05 09:58:05;;;;;;;9.05;2.38;;;15.20;99.90;;;;;;4185641;28;20028;-71
2024/04/05 10:00:14;;;;;;;4.72;1.63;;;15.20;99.90;;;;;;4155078;28;20105;-70
2024/04/05 10:02:18;;;;;;;5.95;1.77;;;15.20;99.90;;;;;;4153732;28;20697;-70
2024/04/05 10:04:19;;;;;;;3.95;1.63;;;15.20;99.90;;;;;;4153936;28;20386;-70
2024/04/05 10:06:24;;;;;;;4.63;1.23;;;15.20;99.90;;;;;;4153621;28;20051;-71
2024/04/05 10:08:27;;;;;;;5.32;1.50;;;15.30;99.90;;;;;;4154537;28;20034;-71
2024/04/05 10:10:34;;;;;;;5.82;1.90;;;15.30;99.90;;;;;;4151032;28;20069;-70
2024/04/05 10:12:34;;;;;;;7.85;1.80;;;15.40;99.90;;;;;;4154202;28;20383;-65
2024/04/05 10:14:36;;;;;;;6.13;1.75;;;15.40;99.90;;;;;;4155607;28;20036;-65
2024/04/05 10:16:37;;;;;;;4.80;1.55;;;15.40;99.90;;;;;;4151630;28;20398;-65
2024/04/05 10:18:39;;;;;;;3.58;1.30;;;15.50;99.90;;;;;;4155355;28;20496;-65
2024/04/05 10:20:39;;;;;;;4.83;2.00;;;15.50;99.90;;;;;;4154151;28;20048;-65
2024/04/05 10:22:40;;;;;;;7.47;2.03;;;15.60;99.90;;;;;;4155877;28;20529;-65
2024/04/05 10:24:40;;;;;;;4.90;1.95;;;15.60;99.90;;;;;;4153536;28;20033;-65
2024/04/05 10:26:51;;;;;;;4.40;1.48;;;15.60;99.90;;;;;;4145591;28;20048;-65